Carlton, Texas
Current Conditions -  °F | °C
As of 9:15 AM on Friday 19 Dec 2014 (Local Time) from KMNZ Reporting Station
Haze Haze  
Wind Chill: 41°   Ceiling: 300
Heat Index: 46°   Visibility: 1.7mi
Dew Point: 46°   Wind: 9mph
Humidity: 100%   Direction: 10°N
Pressure: 30.17"   Gusts: NA
Location:  31.92°N, 98.17°W
Report Text: KMNZ 191515Z AUTO 01008KT 1 3/4SM BR OVC003 08/08 A3017 RMK AO2 T00770077
Loading
Personal Weather Stations






























Interactive Weather Map New forecast layout! Learn more

10-Day Weather Forecast

Advertisements
Track Severe Weather on mobile